createdAt,value
2019-06-08T00:02:07.397Z,100744.09
2019-06-08T00:04:39.242Z,100744.34
2019-06-08T00:07:12.776Z,100735.92
2019-06-08T00:09:44.608Z,100744.09
2019-06-08T00:12:19.011Z,100743.09
2019-06-08T00:14:50.995Z,100750.22
2019-06-08T00:17:34.360Z,100747.77
2019-06-08T00:19:57.078Z,100748.47
2019-06-08T00:22:29.453Z,100747.44
2019-06-08T00:25:01.674Z,100746.89
2019-06-08T00:27:35.838Z,100753.03
2019-06-08T00:30:07.601Z,100749.54
2019-06-08T00:32:39.695Z,100747.61
2019-06-08T00:35:11.537Z,100747.55
2019-06-08T00:37:43.823Z,100747.09
2019-06-08T00:40:16.852Z,100745.28
2019-06-08T00:42:48.775Z,100743.53
2019-06-08T00:45:21.678Z,100738.42
2019-06-08T00:47:53.838Z,100738.58
2019-06-08T00:50:26.211Z,100741.20
2019-06-08T00:52:58.185Z,100737.91
2019-06-08T00:55:30.456Z,100735.84
2019-06-08T00:58:02.834Z,100742.43
2019-06-08T01:00:34.913Z,100733.77
2019-06-08T01:03:07.071Z,100730.70
2019-06-08T01:05:39.133Z,100732.04
2019-06-08T01:08:11.565Z,100738.56
2019-06-08T01:10:43.577Z,100735.20
2019-06-08T01:13:15.854Z,100739.17
2019-06-08T01:15:47.925Z,100740.23
2019-06-08T01:18:21.142Z,100742.92
2019-06-08T01:20:54.209Z,100740.62
2019-06-08T01:23:27.807Z,100730.48
2019-06-08T01:25:59.988Z,100737.69
2019-06-08T01:28:33.386Z,100742.39
2019-06-08T01:31:05.151Z,100741.36
2019-06-08T01:33:37.215Z,100744.06
2019-06-08T01:36:09.131Z,100745.94
2019-06-08T01:38:41.260Z,100760.23
2019-06-08T01:41:13.216Z,100764.43
2019-06-08T01:43:46.205Z,100767.44
2019-06-08T01:46:18.170Z,100772.38
2019-06-08T01:48:50.557Z,100770.58
2019-06-08T01:51:22.820Z,100773.67
2019-06-08T01:53:55.094Z,100766.73
2019-06-08T01:56:27.472Z,100766.92
2019-06-08T01:59:00.881Z,100768.51
2019-06-08T02:01:34.156Z,100773.55
2019-06-08T02:04:06.338Z,100775.13
2019-06-08T02:06:38.430Z,100771.12
2019-06-08T02:09:10.679Z,100771.48
2019-06-08T02:11:42.800Z,100772.35
2019-06-08T02:14:15.082Z,100772.87
2019-06-08T02:16:48.425Z,100774.06
2019-06-08T02:19:20.289Z,100780.63
2019-06-08T02:21:52.457Z,100773.45
2019-06-08T02:24:24.782Z,100774.41
2019-06-08T02:26:57.109Z,100775.24
2019-06-08T02:29:33.722Z,100774.85
2019-06-08T02:32:05.876Z,100779.50
2019-06-08T02:34:40.498Z,100777.98
2019-06-08T02:37:12.767Z,100775.60
2019-06-08T02:39:45.138Z,100782.33
2019-06-08T02:42:17.517Z,100778.23
2019-06-08T02:44:49.484Z,100777.55
2019-06-08T02:47:21.555Z,100781.30
2019-06-08T02:49:53.519Z,100777.54
2019-06-08T02:52:25.689Z,100776.48
2019-06-08T02:54:57.687Z,100782.17
2019-06-08T02:57:31.016Z,100776.35
2019-06-08T03:00:03.252Z,100778.52
2019-06-08T03:02:36.929Z,100777.81
2019-06-08T03:05:09.629Z,100780.99
2019-06-08T03:07:43.137Z,100773.63
2019-06-08T03:10:14.997Z,100778.89
2019-06-08T03:12:47.265Z,100777.09
2019-06-08T03:15:22.919Z,100783.27
2019-06-08T03:17:55.091Z,100783.20
2019-06-08T03:20:27.159Z,100782.08
2019-06-08T03:23:00.558Z,100781.98
2019-06-08T03:25:42.076Z,100778.09
2019-06-08T03:28:07.873Z,100776.23
2019-06-08T03:30:51.925Z,100773.31
2019-06-08T03:33:13.351Z,100778.89
2019-06-08T03:35:55.375Z,100780.05
2019-06-08T03:38:19.529Z,100778.21
2019-06-08T03:40:51.604Z,100781.49
2019-06-08T03:43:23.868Z,100779.30
2019-06-08T03:45:56.348Z,100777.31
2019-06-08T03:48:28.518Z,100785.84
2019-06-08T03:51:00.686Z,100781.59
2019-06-08T03:53:32.860Z,100786.84
2019-06-08T03:56:05.137Z,100788.11
2019-06-08T03:58:38.515Z,100788.89
2019-06-08T04:01:11.229Z,100790.95
2019-06-08T04:03:44.037Z,100785.94
2019-06-08T04:06:16.490Z,100789.18
2019-06-08T04:08:49.958Z,100792.07
2019-06-08T04:11:22.064Z,100796.91
2019-06-08T04:13:54.341Z,100799.37
2019-06-08T04:16:27.629Z,100800.11
2019-06-08T04:18:59.800Z,100801.22
2019-06-08T04:21:31.972Z,100801.95
2019-06-08T04:24:04.384Z,100807.41
2019-06-08T04:26:38.449Z,100821.13
2019-06-08T04:29:10.636Z,100816.91
2019-06-08T04:31:43.791Z,100822.89
2019-06-08T04:34:16.004Z,100815.91
2019-06-08T04:36:50.200Z,100824.13
2019-06-08T04:39:21.574Z,100823.28
2019-06-08T04:41:53.645Z,100822.55
2019-06-08T04:44:26.015Z,100824.00
2019-06-08T04:46:58.390Z,100822.31
2019-06-08T04:49:30.363Z,100825.43
2019-06-08T04:52:02.743Z,100822.64
2019-06-08T04:54:34.703Z,100823.08
2019-06-08T04:57:06.979Z,100822.77
2019-06-08T04:59:39.681Z,100821.78
2019-06-08T05:02:12.654Z,100818.16
2019-06-08T05:04:45.349Z,100820.66
2019-06-08T05:07:20.885Z,100819.48
2019-06-08T05:09:52.953Z,100822.84
2019-06-08T05:12:25.446Z,100819.70
2019-06-08T05:14:57.397Z,100816.08
2019-06-08T05:17:29.779Z,100816.27
2019-06-08T05:20:01.745Z,100824.22
2019-06-08T05:22:33.704Z,100827.23
2019-06-08T05:25:07.207Z,100833.81
2019-06-08T05:27:41.271Z,100831.78
2019-06-08T05:30:13.599Z,100840.14
2019-06-08T05:32:45.976Z,100839.94
2019-06-08T05:35:18.349Z,100841.56
2019-06-08T05:37:50.323Z,100836.72
2019-06-08T05:40:23.715Z,100833.47
2019-06-08T05:42:55.892Z,100840.56
2019-06-08T05:45:28.317Z,100846.34
2019-06-08T05:48:00.535Z,100844.49
2019-06-08T05:50:32.811Z,100849.60
2019-06-08T05:53:04.876Z,100857.22
2019-06-08T05:55:36.746Z,100846.41
2019-06-08T05:58:08.821Z,100852.49
2019-06-08T06:00:42.138Z,100848.47
2019-06-08T06:03:14.079Z,100846.05
2019-06-08T06:05:46.584Z,100843.11
2019-06-08T06:08:19.528Z,100843.35
2019-06-08T06:10:51.514Z,100851.05
2019-06-08T06:13:24.196Z,100848.44
2019-06-08T06:15:56.064Z,100847.04
2019-06-08T06:18:28.234Z,100851.68
2019-06-08T06:21:10.289Z,100846.92
2019-06-08T06:23:33.901Z,100849.80
2019-06-08T06:26:05.883Z,100848.10
2019-06-08T06:28:37.738Z,100838.20
2019-06-08T06:31:09.911Z,100836.28
2019-06-08T06:33:42.092Z,100839.09
2019-06-08T06:36:14.464Z,100835.43
2019-06-08T06:38:47.908Z,100838.48
2019-06-08T06:41:20.213Z,100847.55
2019-06-08T06:43:52.359Z,100842.96
2019-06-08T06:46:24.446Z,100844.94
2019-06-08T06:48:56.612Z,100838.61
2019-06-08T06:51:28.541Z,100841.17
2019-06-08T06:54:01.667Z,100835.94
2019-06-08T06:56:33.732Z,100840.94
2019-06-08T06:59:06.001Z,100838.23
2019-06-08T07:01:39.591Z,100834.31
2019-06-08T07:04:13.572Z,100832.95
2019-06-08T07:06:46.236Z,100839.44
2019-06-08T07:09:18.504Z,100836.96
2019-06-08T07:11:53.088Z,100843.62
2019-06-08T07:14:26.683Z,100841.18
2019-06-08T07:16:58.541Z,100834.15
2019-06-08T07:19:30.605Z,100840.53
2019-06-08T07:22:03.271Z,100833.70
2019-06-08T07:24:35.663Z,100832.47
2019-06-08T07:27:07.823Z,100828.55
2019-06-08T07:29:42.759Z,100829.38
2019-06-08T07:32:15.847Z,100828.86
2019-06-08T07:34:49.956Z,100833.83
2019-06-08T07:37:21.625Z,100828.01
2019-06-08T07:39:53.754Z,100833.85
2019-06-08T07:42:25.760Z,100829.43
2019-06-08T07:45:00.229Z,100833.36
2019-06-08T07:47:32.149Z,100832.12
2019-06-08T07:50:05.077Z,100820.19
2019-06-08T07:52:36.898Z,100826.25
2019-06-08T07:55:09.392Z,100820.48
2019-06-08T07:57:41.237Z,100822.20
2019-06-08T08:00:13.718Z,100822.75
2019-06-08T08:02:45.885Z,100823.11
2019-06-08T08:05:17.648Z,100826.39
2019-06-08T08:07:50.231Z,100830.47
2019-06-08T08:10:22.202Z,100831.78
2019-06-08T08:12:54.776Z,100816.52
2019-06-08T08:15:26.740Z,100816.18
2019-06-08T08:17:59.606Z,100814.11
2019-06-08T08:20:31.692Z,100818.14
2019-06-08T08:23:06.200Z,100802.69
2019-06-08T08:25:37.956Z,100811.02
2019-06-08T08:28:09.936Z,100806.31
2019-06-08T08:30:42.222Z,100809.05
2019-06-08T08:33:14.093Z,100803.41
2019-06-08T08:35:48.208Z,100802.05
2019-06-08T08:38:19.962Z,100793.94
2019-06-08T08:40:53.435Z,100793.94
2019-06-08T08:43:27.852Z,100811.22
2019-06-08T08:46:01.849Z,100806.55
2019-06-08T08:48:32.743Z,100803.27
2019-06-08T08:51:05.122Z,100798.25
2019-06-08T08:53:37.515Z,100809.13
2019-06-08T08:56:09.358Z,100803.81
2019-06-08T08:58:41.463Z,100802.72
2019-06-08T09:01:13.284Z,100802.03
2019-06-08T09:03:45.254Z,100792.63
2019-06-08T09:06:18.129Z,100793.14
2019-06-08T09:08:52.036Z,100798.38
2019-06-08T09:11:24.834Z,100792.66
2019-06-08T09:14:02.498Z,100793.34
2019-06-08T09:16:31.016Z,100784.52
2019-06-08T09:19:04.444Z,100795.81
2019-06-08T09:21:38.396Z,100790.44
2019-06-08T09:24:10.484Z,100785.64
2019-06-08T09:26:42.352Z,100778.97
2019-06-08T09:29:14.829Z,100774.56
2019-06-08T09:31:48.876Z,100776.31
2019-06-08T09:34:20.568Z,100773.48
2019-06-08T09:36:54.062Z,100761.44
2019-06-08T09:39:28.502Z,100766.41
2019-06-08T09:42:02.974Z,100765.84
2019-06-08T09:44:34.299Z,100758.25
2019-06-08T09:47:12.149Z,100759.06
2019-06-08T09:49:40.385Z,100760.89
2019-06-08T09:52:12.666Z,100751.80
2019-06-08T09:54:44.639Z,100751.23
2019-06-08T09:57:18.852Z,100751.62
2019-06-08T09:59:50.515Z,100748.78
2019-06-08T10:02:22.573Z,100744.19
2019-06-08T10:04:56.074Z,100745.13
2019-06-08T10:07:31.363Z,100747.38
2019-06-08T10:10:03.142Z,100736.22
2019-06-08T10:12:37.729Z,100748.13
2019-06-08T10:15:09.066Z,100757.82
2019-06-08T10:17:40.825Z,100758.41
2019-06-08T10:20:12.983Z,100756.30
2019-06-08T10:22:44.955Z,100760.67
2019-06-08T10:25:17.123Z,100767.84
2019-06-08T10:27:49.205Z,100752.42
2019-06-08T10:30:21.266Z,100753.05
2019-06-08T10:32:53.673Z,100750.52
2019-06-08T10:35:28.220Z,100745.87
2019-06-08T10:38:02.799Z,100746.17
2019-06-08T10:40:35.258Z,100747.71
2019-06-08T10:43:09.894Z,100747.70
2019-06-08T10:45:41.029Z,100756.52
2019-06-08T10:48:13.205Z,100764.17
2019-06-08T10:50:47.191Z,100767.04
2019-06-08T10:53:18.873Z,100765.14
2019-06-08T10:55:51.252Z,100769.53
2019-06-08T10:58:23.717Z,100772.20
2019-06-08T11:00:57.851Z,100774.48
2019-06-08T11:03:30.684Z,100781.73
2019-06-08T11:06:07.517Z,100783.11
2019-06-08T11:08:39.097Z,100787.01
2019-06-08T11:11:11.955Z,100788.52
2019-06-08T11:13:50.092Z,100783.58
2019-06-08T11:16:20.897Z,100780.13
2019-06-08T11:18:53.256Z,100778.53
2019-06-08T11:21:25.541Z,100777.91
2019-06-08T11:24:10.388Z,100768.34
2019-06-08T11:26:31.203Z,100768.08
2019-06-08T11:29:04.941Z,100756.48
2019-06-08T11:31:39.291Z,100751.55
2019-06-08T11:34:11.098Z,100751.61
2019-06-08T11:36:43.259Z,100750.25
2019-06-08T11:39:15.431Z,100745.30
2019-06-08T11:41:48.488Z,100743.52
2019-06-08T11:44:20.485Z,100731.56
2019-06-08T11:46:52.587Z,100732.02
2019-06-08T11:49:24.403Z,100733.66
2019-06-08T11:51:58.350Z,100732.08
2019-06-08T11:54:37.084Z,100734.89
2019-06-08T11:57:04.907Z,100735.66
2019-06-08T11:59:37.513Z,100730.94
2019-06-08T12:02:12.682Z,100730.47
2019-06-08T12:04:43.571Z,100729.09
2019-06-08T12:07:15.457Z,100733.20
2019-06-08T12:09:49.935Z,100725.27
2019-06-08T12:12:21.473Z,100725.00
2019-06-08T12:14:53.484Z,100729.22
2019-06-08T12:17:27.635Z,100716.52
2019-06-08T12:19:59.052Z,100705.72
2019-06-08T12:22:31.119Z,100705.72
2019-06-08T12:25:05.927Z,100697.72
2019-06-08T12:27:40.244Z,100704.66
2019-06-08T12:30:21.683Z,100700.35
2019-06-08T12:32:45.018Z,100701.87
2019-06-08T12:35:18.130Z,100701.27
2019-06-08T12:37:51.576Z,100694.46
2019-06-08T12:40:23.576Z,100687.25
2019-06-08T12:42:59.494Z,100674.74
2019-06-08T12:45:29.357Z,100664.17
2019-06-08T12:48:02.443Z,100672.69
2019-06-08T12:50:34.518Z,100659.27
2019-06-08T12:53:12.394Z,100664.37
2019-06-08T12:55:39.370Z,100664.37
2019-06-08T12:58:12.608Z,100658.63
2019-06-08T13:00:44.154Z,100656.14
2019-06-08T13:03:16.702Z,100648.48
2019-06-08T13:05:48.663Z,100640.59
2019-06-08T13:08:21.835Z,100645.41
2019-06-08T13:10:54.025Z,100645.50
2019-06-08T13:13:28.101Z,100647.14
2019-06-08T13:15:59.906Z,100646.67
2019-06-08T13:18:31.669Z,100641.34
2019-06-08T13:21:16.664Z,100639.34
2019-06-08T13:23:38.335Z,100641.27
2019-06-08T13:26:11.503Z,100636.87
2019-06-08T13:28:43.932Z,100631.14
2019-06-08T13:31:19.322Z,100636.03
2019-06-08T13:33:49.190Z,100627.67
2019-06-08T13:36:25.850Z,100622.27
2019-06-08T13:38:54.461Z,100621.97
2019-06-08T13:41:29.655Z,100620.83
2019-06-08T13:44:00.132Z,100618.29
2019-06-08T13:46:32.004Z,100611.00
2019-06-08T13:49:04.164Z,100614.61
2019-06-08T13:51:38.227Z,100612.28
2019-06-08T13:54:09.535Z,100608.67
2019-06-08T13:56:41.291Z,100610.37
2019-06-08T13:59:13.613Z,100611.50
2019-06-08T14:01:47.777Z,100615.66
2019-06-08T14:04:21.052Z,100610.80
2019-06-08T14:06:53.687Z,100617.08
2019-06-08T14:09:28.494Z,100610.41
2019-06-08T14:11:59.936Z,100610.73
2019-06-08T14:14:33.783Z,100610.43
2019-06-08T14:17:04.789Z,100612.17
2019-06-08T14:19:38.534Z,100609.27
2019-06-08T14:22:10.779Z,100606.34
2019-06-08T14:24:42.823Z,100606.34
2019-06-08T14:27:14.885Z,100614.14
2019-06-08T14:29:51.370Z,100614.14
2019-06-08T14:32:23.887Z,100611.63
2019-06-08T14:34:58.182Z,100608.73
2019-06-08T14:37:30.532Z,100615.34
2019-06-08T14:40:02.493Z,100607.68
2019-06-08T14:42:34.560Z,100616.14
2019-06-08T14:45:10.733Z,100608.30
2019-06-08T14:47:41.970Z,100615.30
2019-06-08T14:50:14.547Z,100614.01
2019-06-08T14:52:47.948Z,100613.83
2019-06-08T14:55:22.229Z,100614.36
2019-06-08T14:57:55.146Z,100620.88
2019-06-08T15:00:27.821Z,100623.92
2019-06-08T15:02:59.997Z,100626.06
2019-06-08T15:05:32.678Z,100620.84
2019-06-08T15:08:04.727Z,100623.03
2019-06-08T15:10:38.532Z,100625.50
2019-06-08T15:13:10.726Z,100632.44
2019-06-08T15:15:42.586Z,100633.37
2019-06-08T15:18:14.655Z,100633.27
2019-06-08T15:20:48.113Z,100636.67
2019-06-08T15:23:22.890Z,100646.52
2019-06-08T15:25:53.619Z,100648.56
2019-06-08T15:28:29.281Z,100649.03
2019-06-08T15:31:00.064Z,100653.96
2019-06-08T15:33:33.679Z,100660.11
2019-06-08T15:36:05.671Z,100656.23
2019-06-08T15:38:38.189Z,100658.97
2019-06-08T15:41:10.318Z,100664.19
2019-06-08T15:43:42.218Z,100664.28
2019-06-08T15:46:14.353Z,100662.06
2019-06-08T15:48:48.496Z,100656.16
2019-06-08T15:51:19.914Z,100656.08
2019-06-08T15:53:51.980Z,100660.23
2019-06-08T15:56:40.490Z,100669.31
2019-06-08T15:58:58.806Z,100669.72
2019-06-08T16:01:31.866Z,100666.30
2019-06-08T16:04:04.449Z,100661.93
2019-06-08T16:06:36.423Z,100658.19
2019-06-08T16:09:09.190Z,100658.64
2019-06-08T16:11:41.361Z,100654.70
2019-06-08T16:14:13.836Z,100658.03
2019-06-08T16:16:45.497Z,100649.43
2019-06-08T16:19:17.769Z,100654.19
2019-06-08T16:21:50.345Z,100649.03
2019-06-08T16:24:22.308Z,100655.05
2019-06-08T16:26:54.574Z,100661.89
2019-06-08T16:29:26.898Z,100657.63
2019-06-08T16:31:58.910Z,100652.74
2019-06-08T16:34:31.412Z,100662.83
2019-06-08T16:37:03.475Z,100671.11
2019-06-08T16:39:35.728Z,100679.37
2019-06-08T16:42:07.803Z,100679.35
2019-06-08T16:44:39.861Z,100670.20
2019-06-08T16:47:11.943Z,100657.98
2019-06-08T16:49:43.896Z,100656.66
2019-06-08T16:52:17.393Z,100661.27
2019-06-08T16:54:49.363Z,100665.98
2019-06-08T16:57:21.326Z,100668.89
2019-06-08T16:59:53.497Z,100673.50
2019-06-08T17:02:25.567Z,100671.26
2019-06-08T17:04:57.937Z,100676.37
2019-06-08T17:07:29.900Z,100669.95
2019-06-08T17:10:02.281Z,100669.64
2019-06-08T17:12:37.008Z,100666.07
2019-06-08T17:15:08.276Z,100672.73
2019-06-08T17:17:40.536Z,100668.42
2019-06-08T17:20:12.593Z,100670.22
2019-06-08T17:22:44.557Z,100672.45
2019-06-08T17:25:16.629Z,100674.53
2019-06-08T17:27:48.694Z,100666.98
2019-06-08T17:30:20.665Z,100667.29
2019-06-08T17:32:53.248Z,100659.70
2019-06-08T17:35:25.204Z,100666.45
2019-06-08T17:37:57.067Z,100662.56
2019-06-08T17:40:28.833Z,100668.09
2019-06-08T17:43:01.099Z,100662.80
2019-06-08T17:45:34.214Z,100670.40
2019-06-08T17:48:06.262Z,100673.56
2019-06-08T17:50:38.689Z,100672.28
2019-06-08T17:53:10.613Z,100678.47
2019-06-08T17:55:43.668Z,100671.33
2019-06-08T17:58:15.870Z,100670.95
2019-06-08T18:00:47.941Z,100675.18
2019-06-08T18:03:20.111Z,100682.24
2019-06-08T18:05:52.179Z,100689.20
2019-06-08T18:08:25.971Z,100683.77
2019-06-08T18:10:58.157Z,100682.49
2019-06-08T18:13:29.919Z,100688.94
2019-06-08T18:16:01.994Z,100688.13
2019-06-08T18:18:34.209Z,100682.87
2019-06-08T18:21:08.138Z,100680.75
2019-06-08T18:23:41.842Z,100686.92
2019-06-08T18:26:13.646Z,100693.40
2019-06-08T18:28:48.342Z,100709.05
2019-06-08T18:31:19.419Z,100712.84
2019-06-08T18:33:52.207Z,100715.44
2019-06-08T18:36:27.525Z,100712.75
2019-06-08T18:38:59.109Z,100706.73
2019-06-08T18:41:31.175Z,100705.14
2019-06-08T18:44:02.942Z,100711.51
2019-06-08T18:46:38.024Z,100716.78
2019-06-08T18:49:10.970Z,100715.59
2019-06-08T18:51:43.912Z,100718.48
2019-06-08T18:54:18.592Z,100717.45
2019-06-08T18:56:49.730Z,100722.27
2019-06-08T18:59:21.902Z,100729.45
2019-06-08T19:01:53.770Z,100730.52
2019-06-08T19:04:27.676Z,100729.09
2019-06-08T19:07:01.377Z,100733.30
2019-06-08T19:09:34.281Z,100736.31
2019-06-08T19:12:06.420Z,100738.33
2019-06-08T19:14:39.279Z,100739.08
2019-06-08T19:17:12.426Z,100743.44
2019-06-08T19:19:47.533Z,100739.47
2019-06-08T19:22:18.999Z,100741.78
2019-06-08T19:24:50.948Z,100745.19
2019-06-08T19:27:23.874Z,100753.77
2019-06-08T19:29:57.775Z,100751.94
2019-06-08T19:32:29.265Z,100750.41
2019-06-08T19:35:01.038Z,100748.62
2019-06-08T19:37:32.938Z,100757.30
2019-06-08T19:40:07.428Z,100764.28
2019-06-08T19:42:50.460Z,100777.80
2019-06-08T19:45:12.678Z,100775.32
2019-06-08T19:47:45.045Z,100769.94
2019-06-08T19:50:17.238Z,100775.30
2019-06-08T19:52:52.214Z,100776.48
2019-06-08T19:55:23.087Z,100773.81
2019-06-08T19:57:57.006Z,100776.05
2019-06-08T20:00:29.067Z,100771.48
2019-06-08T20:03:01.343Z,100776.97
2019-06-08T20:05:33.407Z,100783.00
2019-06-08T20:08:07.965Z,100792.84
2019-06-08T20:10:41.037Z,100781.59
2019-06-08T20:13:13.045Z,100784.45
2019-06-08T20:15:50.439Z,100792.83
2019-06-08T20:18:18.677Z,100790.53
2019-06-08T20:20:53.118Z,100790.58
2019-06-08T20:23:24.449Z,100792.50
2019-06-08T20:25:57.357Z,100785.30
2019-06-08T20:28:30.034Z,100785.30
2019-06-08T20:31:02.298Z,100793.00
2019-06-08T20:33:37.682Z,100796.48
2019-06-08T20:36:08.892Z,100792.83
2019-06-08T20:38:43.764Z,100784.98
2019-06-08T20:41:15.103Z,100777.56
2019-06-08T20:43:50.333Z,100787.00
2019-06-08T20:46:20.536Z,100774.94
2019-06-08T20:48:53.267Z,100770.41
2019-06-08T20:51:27.713Z,100768.91
2019-06-08T20:53:58.925Z,100759.53
2019-06-08T20:56:30.835Z,100762.73
2019-06-08T20:59:02.900Z,100762.42
2019-06-08T21:01:34.978Z,100759.08
2019-06-08T21:04:07.697Z,100758.03
2019-06-08T21:06:41.059Z,100755.84
2019-06-08T21:09:12.809Z,100752.28
2019-06-08T21:11:49.359Z,100754.05
2019-06-08T21:14:19.798Z,100758.40
2019-06-08T21:16:53.310Z,100772.78
2019-06-08T21:19:28.100Z,100775.31
2019-06-08T21:22:00.088Z,100778.47
2019-06-08T21:24:32.252Z,100775.89
2019-06-08T21:27:04.430Z,100772.79
2019-06-08T21:29:47.647Z,100776.76
2019-06-08T21:32:10.370Z,100778.88
2019-06-08T21:34:42.687Z,100772.99
2019-06-08T21:37:14.959Z,100774.70
2019-06-08T21:39:53.018Z,100775.22
2019-06-08T21:42:23.291Z,100769.45
2019-06-08T21:44:59.389Z,100770.94
2019-06-08T21:47:29.751Z,100771.05
2019-06-08T21:50:02.231Z,100762.76
2019-06-08T21:52:34.678Z,100765.28
2019-06-08T21:55:07.482Z,100769.45
2019-06-08T21:57:39.348Z,100764.03
2019-06-08T22:00:35.884Z,100758.92
2019-06-08T22:02:47.974Z,100755.69
2019-06-08T22:05:21.084Z,100759.19
2019-06-08T22:07:54.056Z,100773.17
2019-06-08T22:10:26.053Z,100768.99
2019-06-08T22:13:00.939Z,100767.19
2019-06-08T22:15:32.320Z,100759.19
2019-06-08T22:18:04.542Z,100758.77
2019-06-08T22:20:38.244Z,100767.59
2019-06-08T22:23:10.377Z,100775.23
2019-06-08T22:25:42.756Z,100779.20
2019-06-08T22:28:14.827Z,100778.48
2019-06-08T22:30:48.233Z,100796.73
2019-06-08T22:33:20.184Z,100793.39
2019-06-08T22:35:53.133Z,100793.08
2019-06-08T22:38:25.959Z,100791.02
2019-06-08T22:41:00.295Z,100788.38
2019-06-08T22:43:32.551Z,100793.95
2019-06-08T22:46:04.419Z,100794.67
2019-06-08T22:48:38.365Z,100791.21
2019-06-08T22:51:10.093Z,100791.20
2019-06-08T22:53:42.055Z,100785.02
2019-06-08T22:56:14.329Z,100787.13
2019-06-08T22:58:47.928Z,100790.30
2019-06-08T23:01:19.863Z,100787.97
2019-06-08T23:03:51.561Z,100793.55
2019-06-08T23:06:24.042Z,100788.80
2019-06-08T23:08:59.801Z,100796.58
2019-06-08T23:11:30.330Z,100789.06
2019-06-08T23:14:04.396Z,100792.89
2019-06-08T23:16:36.311Z,100787.20
2019-06-08T23:19:08.586Z,100781.62
2019-06-08T23:21:40.652Z,100788.22
2019-06-08T23:24:12.520Z,100796.44
2019-06-08T23:26:44.690Z,100794.59
2019-06-08T23:29:17.880Z,100796.13
2019-06-08T23:31:49.847Z,100803.87
2019-06-08T23:34:23.400Z,100813.14
2019-06-08T23:36:59.979Z,100813.95
2019-06-08T23:39:29.232Z,100820.11
2019-06-08T23:42:01.690Z,100820.11
2019-06-08T23:44:33.771Z,100822.23
2019-06-08T23:47:06.080Z,100819.98
2019-06-08T23:49:38.316Z,100820.54
2019-06-08T23:52:11.751Z,100827.44
2019-06-08T23:54:43.685Z,100828.52
2019-06-08T23:57:17.902Z,100836.54
2019-06-08T23:59:49.357Z,100825.41
